• Join FlightAware (Why Join?)
  • Login
  • US Flag 
01:53PM EDT


 

Airport Tracker/Info


-or-


 

Live Flight TrackerFlight Track Log ✈ N201SU ✈ 21-Apr-2013 ✈ KMQS - KBED

Flight Track Log - Related Links

Times and Time Zones

All times are in EDT time to prevent confusion due to time zone crossing. See the N201SU flight status page for this flight to view local times or setup timezone preferences in your user account.

Time Position Orientation Groundspeed Altitude Reporting Facility
EDT Latitude Longitude Course Direction KTS MPH feet Rate Location/Type
07:58AM 39.9700 -75.8319 116° Southeast 217 250 2,100  Level FAA TRACON SMA TRACON (SMA)
07:58AM 39.9606 -75.8067 116° Southeast 210 242 2,900 1,620 Climbing FAA TRACON SMA TRACON (SMA)
07:59AM 39.9528 -75.7861 116° Southeast 215 247 3,200 1,500 Climbing FAA TRACON SMA TRACON (SMA)
07:59AM 39.9433 -75.7544 111° Southeast 259 298 3,900 3,720 Climbing FAA TRACON SMA TRACON (SMA)
07:59AM 39.9344 -75.7219 110° East 274 315 5,700 4,920 Climbing FAA TRACON SMA TRACON (SMA)
08:00AM 39.9250 -75.6931 113° Southeast 281 323 7,200 4,200 Climbing FAA TRACON SMA TRACON (SMA)
08:00AM 39.9161 -75.6622 111° Southeast 290 334 8,500 4,020 Climbing FAA TRACON SMA TRACON (SMA)
08:00AM 39.9097 -75.6217 102° East 299 344 9,900 2,220 Climbing FAA TRACON SMA TRACON (SMA)
08:01AM 39.9056 -75.5889 99° East 317 365 10,000 120 Climbing FAA TRACON SMA TRACON (SMA)
08:01AM 39.9017 -75.5506 98° East 330 380 10,000  Level FAA TRACON SMA TRACON (SMA)
08:01AM 39.8969 -75.5031 97° East 341 392 10,000  Level FAA TRACON SMA TRACON (SMA)
08:02AM 39.8922 -75.4642 99° East 350 403 10,000  Level FAA TRACON SMA TRACON (SMA)
08:02AM 39.8872 -75.4250 99° East 354 407 10,000  Level FAA TRACON SMA TRACON (SMA)
08:02AM 39.8808 -75.3797 100° East 349 402 10,000  Level FAA TRACON SMA TRACON (SMA)
08:03AM 39.8758 -75.3403 99° East 342 394 10,000  Level FAA TRACON SMA TRACON (SMA)
08:03AM 39.8711 -75.3047 100° East 326 375 10,000  Level FAA TRACON SMA TRACON (SMA)
08:03AM 39.8664 -75.2656 99° East 324 373 10,000  Level FAA TRACON SMA TRACON (SMA)
08:04AM 39.8611 -75.2194 98° East 336 387 10,000 720 Level FAA TRACON SMA TRACON (SMA)
08:04AM 39.8558 -75.1828 101° East 334 384 10,500 1,920 Climbing FAA TRACON SMA TRACON (SMA)
08:04AM 39.8511 -75.1450 99° East 349 402 11,300 2,220 Climbing FAA TRACON SMA TRACON (SMA)
08:05AM 39.8447 -75.0986 100° East 342 394 12,000 1,020 Climbing FAA TRACON SMA TRACON (SMA)
08:05AM 39.8394 -75.0606 100° East 349 402 12,000  Level FAA TRACON SMA TRACON (SMA)
08:05AM 39.8339 -75.0197 100° East 359 413 12,000  Level FAA TRACON SMA TRACON (SMA)
08:06AM 39.8272 -74.9694 100° East 365 420 12,000  Level FAA TRACON SMA TRACON (SMA)
08:06AM 39.8219 -74.9289 100° East 367 422 12,000  Level FAA TRACON SMA TRACON (SMA)
08:06AM 39.8167 -74.8881 100° East 369 425 12,000  Level FAA TRACON SMA TRACON (SMA)
08:07AM 39.8100 -74.8397 100° East 370 426 12,000 720 Level FAA TRACON SMA TRACON (SMA)
08:07AM 39.8042 -74.7967 100° East 371 427 12,500 3,900 Climbing FAA TRACON SMA TRACON (SMA)
08:07AM 39.8011 -74.7561 96° East 363 418 14,600 5,700 Climbing FAA TRACON SMA TRACON (SMA)
08:08AM 39.8147 -74.7108 69° East 356 410 16,300 4,320 Climbing FAA TRACON SMA TRACON (SMA)
08:08AM 39.8336 -74.6808 51° Northeast 359 413 17,500 2,220 Climbing FAA TRACON SMA TRACON (SMA)
08:08AM 39.8536 -74.6569 43° Northeast 347 399 17,800 1,020 Climbing FAA TRACON SMA TRACON (SMA)
08:09AM 39.8667 -74.6436 38° Northeast 355 409 18,200 600 Climbing FAA TRACON SMA TRACON (SMA)
08:09AM 39.8667 -74.6436 194° South 355 409 18,200 2,280 Level FAA TRACON SMA TRACON (SMA)
08:11AM 40.0517 -74.4614 37° Northeast 376 433 22,900 1,800 Climbing New York Center
08:12AM 40.1464 -74.3689 37° Northeast 409 471 23,000  Climbing New York Center
08:13AM 40.2372 -74.2594 43° Northeast 426 490 23,000  Level New York Center
08:14AM 40.3097 -74.1297 54° Northeast 432 497 23,000  Level New York Center
08:15AM 40.3861 -74.0025 52° Northeast 438 504 23,000  Level New York Center
08:17AM 40.5381 -73.7453 52° Northeast 448 516 23,000  Level Boston Center
08:18AM 40.6125 -73.6075 55° Northeast 455 524 23,000  Level Boston Center
08:19AM 40.6908 -73.4775 52° Northeast 460 529 23,000  Level Boston Center
08:20AM 40.7669 -73.3444 53° Northeast 455 524 23,000  Level Boston Center
08:21AM 40.8575 -73.2303 44° Northeast 450 518 23,000 -600 Level Boston Center
08:22AM 40.9519 -73.1217 41° Northeast 444 511 21,900 -2,400 Descending Boston Center
08:23AM 41.0400 -73.0181 42° Northeast 432 497 18,200 -3,000 Descending Boston Center
08:24AM 41.1239 -72.9194 42° Northeast 420 483 15,900 -2,280 Descending Boston Center
08:25AM 41.2056 -72.8236 41° Northeast 399 459 13,700 -1,500 Descending Boston Center
08:26AM 41.2747 -72.7439 41° Northeast 376 433 13,000 -360 Descending Boston Center
08:27AM 41.3664 -72.6697 31° Northeast 351 404 13,000  Level Boston Center
08:28AM 41.4542 -72.6339 17° North 351 404 13,000  Level Boston Center
08:29AM 41.5750 -72.5817 18° North 356 410 13,000 -540 Level Boston Center
08:30AM 41.6606 -72.5289 25° Northeast 338 389 11,900 -1,020 Descending Boston Center
08:31AM 41.7336 -72.4539 37° Northeast 327 376 11,000 -480 Descending Boston Center
08:32AM 41.8022 -72.3733 41° Northeast 327 376 11,000 60 Level Boston Center
08:32AM 41.8272 -72.3453 40° Northeast 342 394 11,100  Climbing Boston Center
08:33AM 41.8731 -72.2922 41° Northeast 332 382 11,000  Descending Boston Center
08:33AM 41.8981 -72.2644 40° Northeast 337 388 11,100  Climbing Boston Center
08:34AM 41.9231 -72.2364 40° Northeast 332 382 11,000 -240 Descending Boston Center
08:34AM 41.9708 -72.1803 41° Northeast 324 373 10,900 -540 Descending Boston Center
08:35AM 42.0103 -72.1356 40° Northeast 326 375 10,500 -900 Descending Boston Center
08:35AM 42.0436 -72.0992 39° Northeast 305 351 9,900 -1,200 Descending Boston Center
08:36AM 42.0725 -72.0653 41° Northeast 306 352 9,100 -1,380 Descending Boston Center
08:36AM 42.1036 -72.0289 41° Northeast 288 331 8,500 -1,440 Descending Boston Center
08:37AM 42.1369 -71.9950 37° Northeast 279 321 7,700 -1,260 Descending Boston Center
08:38AM 42.1969 -71.9272 40° Northeast 264 304 6,400 -1,260 Descending Boston Center
08:39AM 42.2489 -71.8708 39° Northeast 244 281 5,200 -720 Descending Boston Center
08:40AM 42.2967 -71.8142 41° Northeast 225 259 5,000 -120 Descending Boston Center
08:41AM 42.3464 -71.7631 37° Northeast 219 252 5,000  Level Boston Center
08:42AM 42.3897 -71.6922 50° Northeast 229 264 5,000 -180 Level Boston Center
08:43AM 42.4267 -71.6158 57° Northeast 239 275 4,700 -600 Descending Boston Center
08:44AM 42.4500 -71.5500 64° Northeast 241 277 4,000 -960 Descending KA90
08:45AM 42.4833 -71.5000 48° Northeast 227 261 3,100 -540 Descending KA90
08:46AM 42.5167 -71.4000 66° East 232 267 3,000 -60 Descending KA90
08:47AM 42.5333 -71.3333 71° East 230 265 3,000 -360 Level KA90
08:48AM 42.5500 -71.2500 75° East 202 232 2,400 -840 Descending KA90
08:49AM 42.5000 -71.2167 154° Southeast 193 222 1,500 -840 Descending KA90
08:50AM 42.4667 -71.2333 200° South 125 144 900 -720 Descending KA90
08:54AM 42.4667 -71.2833 346° North  Level FlightAware Approximate
09:01AM 42.4699 -71.2890 346° North  Level Estimated
09:02AM 42.4667 -71.2833 346° North  Level FlightAware Approximate
09:03AM 42.4699 -71.2890 346° North  Level Estimated
09:04AM 42.4667 -71.2833 346° North  Level FlightAware Approximate
09:05AM 42.4699 -71.2890 346° North  Level Estimated
09:06AM 42.4667 -71.2833 346° North  Level FlightAware Approximate